Gonzales, California
Current Conditions -  °F | °C
As of 9:53 AM on Saturday 20 Dec 2014 (Local Time) from KSNS Reporting Station
Overcast Overcast  
Wind Chill: 59°   Ceiling: 3400
Heat Index: 59°   Visibility: 10mi
Dew Point: 54°   Wind: 7mph
Humidity: 83%   Direction: 110°ESE
Pressure: 30.22"   Gusts: NA
Location:  36.51°N, 121.44°W
Report Text: KSNS 201753Z 11006KT 10SM BKN034 OVC047 15/12 A3022 RMK AO2 SLP243 60009 T01500122 10156 20133 53020
Loading
Personal Weather Stations






























Interactive Weather Map New forecast layout! Learn more

10-Day Weather Forecast

Advertisements
Track Severe Weather on mobile